Nonthaburi, Thailand
Current Conditions -  °F | °C
As of 5:00 AM on Wednesday 26 Nov 2014 (Local Time) from VTBD Reporting Station
Scattered Clouds Scattered Clouds  
Wind Chill: 79°   Ceiling: Unl
Heat Index: 82°   Visibility: 6mi
Dew Point: 72°   Wind: 8mph
Humidity: 78%   Direction: 350°N
Pressure: 29.77"   Gusts: NA
Location:  13.84°N, 100.52°E
Report Text: VTBD 252200Z 35007KT 9000 FEW025 SCT300 26/22 Q1008 NOSIG
Loading
Personal Weather Stations






























Interactive Weather Map New forecast layout! Learn more

10-Day Weather Forecast

Advertisements
Track Severe Weather on mobile